createdAt,value
2022-08-23T00:01:01.845Z,63.50
2022-08-23T00:02:09.118Z,72.44
2022-08-23T00:03:14.062Z,63.31
2022-08-23T00:04:22.703Z,66.50
2022-08-23T00:05:27.254Z,63.25
2022-08-23T00:06:32.844Z,72.62
2022-08-23T00:07:39.085Z,78.25
2022-08-23T00:08:47.424Z,62.94
2022-08-23T00:09:49.247Z,71.25
2022-08-23T00:10:53.270Z,73.81
2022-08-23T00:12:15.113Z,75.37
2022-08-23T00:13:19.155Z,77.31
2022-08-23T00:14:26.128Z,82.94
2022-08-23T00:15:30.172Z,80.12
2022-08-23T00:16:35.871Z,76.25
2022-08-23T00:17:39.916Z,81.94
2022-08-23T00:18:49.420Z,83.06
2022-08-23T00:19:49.599Z,80.62
2022-08-23T00:20:53.841Z,68.19
2022-08-23T00:21:57.915Z,75.31
2022-08-23T00:23:02.041Z,78.19
2022-08-23T00:24:08.145Z,83.44
2022-08-23T00:25:14.067Z,78.06
2022-08-23T00:26:20.955Z,79.44
2022-08-23T00:27:25.063Z,80.81
2022-08-23T00:28:29.458Z,83.50
2022-08-23T00:29:36.466Z,77.44
2022-08-23T00:30:43.112Z,65.94
2022-08-23T00:31:47.742Z,77.44
2022-08-23T00:32:51.795Z,80.25
2022-08-23T00:33:57.461Z,78.62
2022-08-23T00:35:02.128Z,75.44
2022-08-23T00:36:06.246Z,77.06
2022-08-23T00:37:12.253Z,72.44
2022-08-23T00:38:33.750Z,57.13
2022-08-23T00:39:22.150Z,79.25
2022-08-23T00:40:26.337Z,74.19
2022-08-23T00:41:31.386Z,74.25
2022-08-23T00:42:57.502Z,71.37
2022-08-23T00:44:02.619Z,71.06
2022-08-23T00:45:07.023Z,74.37
2022-08-23T00:46:34.678Z,76.31
2022-08-23T00:47:38.822Z,78.81
2022-08-23T00:48:43.012Z,83.81
2022-08-23T00:49:49.996Z,73.06
2022-08-23T00:51:02.559Z,77.06
2022-08-23T00:52:15.382Z,73.06
2022-08-23T00:53:28.207Z,82.56
2022-08-23T00:54:33.313Z,79.75
2022-08-23T00:55:39.384Z,71.81
2022-08-23T00:56:43.615Z,81.25
2022-08-23T00:57:47.735Z,77.50
2022-08-23T00:58:52.245Z,75.75
2022-08-23T00:59:56.233Z,82.19
2022-08-23T01:01:02.983Z,101.12
2022-08-23T01:02:07.953Z,80.44
2022-08-23T01:03:13.986Z,80.81
2022-08-23T01:04:20.683Z,76.69
2022-08-23T01:05:27.658Z,83.50
2022-08-23T01:06:56.477Z,80.12
2022-08-23T01:08:01.326Z,80.81
2022-08-23T01:09:08.539Z,84.31
2022-08-23T01:10:20.154Z,84.31
2022-08-23T01:11:24.426Z,72.06
2022-08-23T01:12:34.118Z,77.00
2022-08-23T01:13:44.047Z,71.50
2022-08-23T01:15:03.031Z,80.31
2022-08-23T01:16:16.282Z,79.75
2022-08-23T01:17:23.287Z,81.87
2022-08-23T01:18:30.147Z,72.25
2022-08-23T01:19:45.770Z,78.12
2022-08-23T01:21:12.923Z,75.19
2022-08-23T01:22:22.854Z,78.94
2022-08-23T01:23:41.730Z,70.06
2022-08-23T01:25:06.018Z,66.12
2022-08-23T01:25:56.018Z,75.56
2022-08-23T01:27:00.276Z,77.00
2022-08-23T01:28:04.778Z,76.44
2022-08-23T01:29:08.878Z,99.06
2022-08-23T01:30:16.627Z,81.75
2022-08-23T01:31:24.424Z,80.81
2022-08-23T01:32:28.458Z,74.94
2022-08-23T01:33:32.954Z,81.56
2022-08-23T01:34:37.106Z,79.81
2022-08-23T01:35:45.715Z,75.62
2022-08-23T01:36:49.950Z,82.00
2022-08-23T01:37:54.179Z,82.81
2022-08-23T01:38:58.360Z,82.19
2022-08-23T01:40:02.424Z,78.87
2022-08-23T01:41:06.581Z,92.81
2022-08-23T01:42:10.554Z,90.31
2022-08-23T01:43:17.200Z,89.06
2022-08-23T01:44:21.204Z,94.75
2022-08-23T01:45:26.873Z,83.87
2022-08-23T01:46:31.010Z,83.62
2022-08-23T01:47:35.080Z,89.62
2022-08-23T01:48:39.498Z,82.19
2022-08-23T01:49:43.546Z,83.62
2022-08-23T01:50:48.354Z,82.25
2022-08-23T01:51:52.462Z,79.12
2022-08-23T01:52:56.767Z,85.56
2022-08-23T01:54:00.810Z,105.50
2022-08-23T01:55:06.526Z,81.31
2022-08-23T01:56:14.310Z,87.12
2022-08-23T01:57:18.363Z,83.37
2022-08-23T01:58:22.669Z,92.31
2022-08-23T01:59:27.058Z,93.31
2022-08-23T02:00:34.225Z,84.75
2022-08-23T02:01:38.766Z,97.19
2022-08-23T02:02:42.923Z,93.19
2022-08-23T02:03:48.483Z,100.19
2022-08-23T02:04:54.227Z,99.81
2022-08-23T02:05:58.945Z,96.87
2022-08-23T02:07:03.070Z,94.44
2022-08-23T02:08:08.430Z,107.25
2022-08-23T02:09:17.147Z,118.00
2022-08-23T02:10:19.491Z,103.06
2022-08-23T02:11:25.708Z,104.73
2022-08-23T02:12:29.836Z,107.56
2022-08-23T02:13:33.733Z,97.69
2022-08-23T02:14:37.721Z,91.63
2022-08-23T02:15:46.225Z,88.94
2022-08-23T02:17:02.967Z,93.50
2022-08-23T02:18:00.078Z,118.94
2022-08-23T02:19:07.067Z,97.12
2022-08-23T02:20:12.703Z,91.87
2022-08-23T02:21:16.904Z,116.75
2022-08-23T02:22:21.027Z,87.80
2022-08-23T02:23:25.243Z,110.81
2022-08-23T02:24:29.273Z,115.06
2022-08-23T02:25:33.478Z,112.75
2022-08-23T02:26:39.978Z,109.94
2022-08-23T02:27:45.780Z,118.75
2022-08-23T02:28:52.531Z,80.50
2022-08-23T02:29:58.290Z,111.88
2022-08-23T02:31:03.432Z,110.06
2022-08-23T02:32:10.431Z,115.56
2022-08-23T02:33:18.367Z,114.69
2022-08-23T02:34:22.814Z,110.31
2022-08-23T02:35:28.641Z,108.69
2022-08-23T02:36:34.258Z,112.75
2022-08-23T02:37:38.697Z,115.44
2022-08-23T02:38:42.661Z,118.25
2022-08-23T02:39:46.698Z,109.19
2022-08-23T02:40:52.990Z,109.06
2022-08-23T02:41:57.163Z,112.75
2022-08-23T02:43:01.221Z,89.73
2022-08-23T02:44:05.830Z,97.37
2022-08-23T02:45:10.279Z,117.62
2022-08-23T02:46:15.872Z,119.62
2022-08-23T02:47:20.008Z,113.06
2022-08-23T02:48:24.059Z,119.62
2022-08-23T02:49:29.501Z,109.19
2022-08-23T02:50:34.170Z,99.69
2022-08-23T02:51:40.439Z,113.44
2022-08-23T02:52:44.580Z,115.56
2022-08-23T02:53:48.614Z,117.75
2022-08-23T02:54:53.283Z,117.81
2022-08-23T02:55:58.579Z,116.00
2022-08-23T02:57:03.108Z,88.47
2022-08-23T02:58:07.220Z,90.44
2022-08-23T02:59:11.266Z,106.81
2022-08-23T03:00:17.122Z,118.00
2022-08-23T03:01:24.366Z,105.25
2022-08-23T03:02:28.497Z,119.19
2022-08-23T03:03:32.769Z,113.06
2022-08-23T03:04:38.599Z,99.13
2022-08-23T03:05:43.047Z,106.94
2022-08-23T03:06:47.303Z,113.94
2022-08-23T03:07:51.378Z,94.87
2022-08-23T03:08:56.704Z,97.37
2022-08-23T03:10:02.170Z,106.00
2022-08-23T03:11:11.860Z,97.00
2022-08-23T03:12:17.232Z,78.12
2022-08-23T03:13:21.653Z,96.93
2022-08-23T03:14:25.972Z,92.67
2022-08-23T03:15:30.100Z,98.73
2022-08-23T03:16:36.649Z,104.50
2022-08-23T03:17:40.481Z,89.31
2022-08-23T03:18:44.693Z,97.60
2022-08-23T03:19:48.825Z,91.00
2022-08-23T03:20:52.857Z,120.75
2022-08-23T03:21:57.190Z,92.75
2022-08-23T03:23:01.813Z,104.75
2022-08-23T03:24:10.151Z,114.56
2022-08-23T03:25:12.650Z,109.12
2022-08-23T03:26:20.476Z,103.31
2022-08-23T03:27:24.561Z,106.00
2022-08-23T03:28:29.940Z,100.13
2022-08-23T03:29:34.528Z,90.56
2022-08-23T03:30:38.769Z,97.81
2022-08-23T03:31:43.219Z,112.69
2022-08-23T03:32:49.168Z,106.19
2022-08-23T03:33:53.163Z,111.88
2022-08-23T03:34:57.197Z,94.19
2022-08-23T03:36:03.714Z,99.13
2022-08-23T03:37:07.880Z,65.33
2022-08-23T03:38:14.490Z,108.50
2022-08-23T03:39:18.710Z,99.13
2022-08-23T03:40:30.119Z,106.75
2022-08-23T03:41:31.106Z,99.80
2022-08-23T03:42:35.261Z,115.81
2022-08-23T03:43:39.944Z,104.40
2022-08-23T03:44:44.848Z,92.12
2022-08-23T03:50:24.366Z,93.00
2022-08-23T03:51:33.453Z,100.62
2022-08-23T03:52:37.907Z,134.31
2022-08-23T03:53:42.006Z,102.31
2022-08-23T03:54:46.156Z,116.19
2022-08-23T03:55:51.064Z,108.33
2022-08-23T03:57:01.564Z,98.33
2022-08-23T03:58:06.977Z,105.44
2022-08-23T03:59:11.638Z,120.75
2022-08-23T04:00:20.294Z,106.25
2022-08-23T04:01:28.442Z,112.56
2022-08-23T04:02:38.656Z,110.69
2022-08-23T04:03:58.616Z,99.62
2022-08-23T04:05:08.961Z,102.93
2022-08-23T04:06:20.700Z,103.07
2022-08-23T04:07:26.855Z,107.87
2022-08-23T04:08:33.915Z,103.00
2022-08-23T04:09:36.640Z,97.27
2022-08-23T04:10:41.364Z,111.75
2022-08-23T04:11:45.559Z,118.62
2022-08-23T04:12:49.796Z,117.50
2022-08-23T04:13:53.901Z,131.35
2022-08-23T04:14:57.934Z,125.75
2022-08-23T04:16:04.387Z,137.12
2022-08-23T04:17:08.539Z,148.38
2022-08-23T04:18:13.854Z,135.88
2022-08-23T04:19:20.326Z,143.62
2022-08-23T04:20:26.817Z,152.06
2022-08-23T04:21:32.419Z,167.37
2022-08-23T04:22:36.557Z,122.93
2022-08-23T04:23:46.533Z,134.13
2022-08-23T04:24:52.939Z,107.31
2022-08-23T04:25:58.190Z,103.25
2022-08-23T04:27:03.076Z,87.06
2022-08-23T04:28:11.981Z,90.56
2022-08-23T04:29:33.967Z,86.69
2022-08-23T04:30:24.616Z,85.38
2022-08-23T04:31:34.480Z,96.94
2022-08-23T04:32:36.158Z,89.13
2022-08-23T04:33:44.747Z,74.00
2022-08-23T04:34:51.340Z,76.06
2022-08-23T04:35:57.295Z,46.13
2022-08-23T04:37:01.903Z,59.38
2022-08-23T04:38:24.726Z,62.44
2022-08-23T04:39:12.201Z,62.94
2022-08-23T04:40:17.073Z,95.19
2022-08-23T04:41:21.246Z,103.87
2022-08-23T04:42:27.489Z,101.38
2022-08-23T04:43:33.787Z,112.56
2022-08-23T04:44:37.833Z,112.81
2022-08-23T04:45:42.056Z,103.38
2022-08-23T04:46:46.264Z,99.37
2022-08-23T04:47:50.390Z,123.06
2022-08-23T04:48:54.546Z,107.94
2022-08-23T04:49:58.701Z,105.87
2022-08-23T04:51:03.247Z,109.00
2022-08-23T04:52:10.371Z,105.31
2022-08-23T04:53:17.543Z,112.62
2022-08-23T04:54:22.554Z,105.69
2022-08-23T04:55:28.590Z,111.75
2022-08-23T04:56:36.180Z,112.88
2022-08-23T04:57:40.596Z,87.06
2022-08-23T04:58:46.996Z,70.44
2022-08-23T04:59:51.042Z,82.19
2022-08-23T05:00:58.183Z,83.25
2022-08-23T05:02:02.219Z,63.93
2022-08-23T05:03:06.428Z,48.13
2022-08-23T05:04:10.791Z,60.69
2022-08-23T05:05:20.295Z,53.07
2022-08-23T05:06:24.734Z,34.38
2022-08-23T05:07:42.678Z,44.53
2022-08-23T05:08:37.555Z,34.19
2022-08-23T05:09:41.585Z,33.00
2022-08-23T05:10:47.132Z,28.44
2022-08-23T05:11:55.531Z,31.06
2022-08-23T05:13:03.158Z,26.31
2022-08-23T05:14:07.038Z,24.00
2022-08-23T05:15:11.801Z,31.33
2022-08-23T05:16:18.586Z,28.47
2022-08-23T05:17:22.704Z,25.81
2022-08-23T05:18:29.562Z,30.25
2022-08-23T05:19:36.555Z,22.94
2022-08-23T05:20:47.966Z,21.19
2022-08-23T05:21:57.118Z,26.87
2022-08-23T05:23:01.911Z,29.69
2022-08-23T05:24:07.591Z,35.19
2022-08-23T05:25:13.435Z,23.87
2022-08-23T05:26:18.548Z,19.94
2022-08-23T05:27:22.519Z,23.94
2022-08-23T05:28:29.590Z,14.63
2022-08-23T05:29:33.748Z,28.07
2022-08-23T05:30:37.836Z,25.37
2022-08-23T05:31:42.186Z,20.88
2022-08-23T05:32:46.310Z,18.00
2022-08-23T05:33:50.728Z,19.07
2022-08-23T05:34:54.761Z,19.00
2022-08-23T05:35:58.808Z,21.31
2022-08-23T05:37:04.697Z,13.19
2022-08-23T05:38:08.789Z,20.31
2022-08-23T05:39:12.761Z,17.87
2022-08-23T05:40:21.736Z,12.81
2022-08-23T05:41:37.933Z,12.56
2022-08-23T05:42:31.473Z,11.12
2022-08-23T05:43:35.890Z,10.63
2022-08-23T05:44:39.989Z,10.13
2022-08-23T05:45:44.023Z,8.00
2022-08-23T05:46:48.775Z,7.12
2022-08-23T05:47:55.756Z,5.56
2022-08-23T05:48:58.819Z,5.62
2022-08-23T05:50:03.019Z,4.31
2022-08-23T05:51:24.879Z,5.75
2022-08-23T05:52:28.981Z,6.56
2022-08-23T05:53:33.020Z,5.62
2022-08-23T05:54:37.749Z,3.37
2022-08-23T05:55:41.855Z,2.94
2022-08-23T05:56:45.958Z,4.81
2022-08-23T05:57:51.117Z,5.50
2022-08-23T05:59:00.014Z,4.69
2022-08-23T06:00:05.373Z,5.25
2022-08-23T06:01:10.640Z,4.62
2022-08-23T06:02:16.652Z,7.81
2022-08-23T06:03:20.424Z,5.81
2022-08-23T06:04:24.631Z,6.00
2022-08-23T06:05:28.981Z,5.44
2022-08-23T06:06:37.787Z,5.31
2022-08-23T06:07:42.075Z,5.56
2022-08-23T06:08:47.381Z,5.25
2022-08-23T06:09:51.351Z,4.56
2022-08-23T06:11:12.996Z,5.94
2022-08-23T06:12:17.132Z,4.56
2022-08-23T06:13:21.290Z,4.75
2022-08-23T06:14:26.983Z,4.81
2022-08-23T06:15:31.787Z,4.00
2022-08-23T06:16:38.790Z,4.69
2022-08-23T06:17:42.944Z,5.50
2022-08-23T06:18:48.865Z,5.75
2022-08-23T06:19:54.317Z,6.44
2022-08-23T06:21:03.661Z,4.56
2022-08-23T06:22:07.727Z,5.81
2022-08-23T06:23:12.087Z,5.69
2022-08-23T06:24:16.137Z,4.50
2022-08-23T06:25:20.129Z,4.69
2022-08-23T06:26:30.460Z,5.19
2022-08-23T06:27:34.419Z,5.56
2022-08-23T06:28:44.125Z,5.75
2022-08-23T06:29:44.793Z,5.06
2022-08-23T06:30:48.896Z,7.00
2022-08-23T06:31:54.723Z,5.06
2022-08-23T06:32:58.725Z,3.87
2022-08-23T06:34:02.874Z,4.19
2022-08-23T06:35:33.164Z,4.81
2022-08-23T06:36:17.238Z,4.44
2022-08-23T06:37:22.280Z,6.75
2022-08-23T06:38:27.999Z,5.00
2022-08-23T06:39:37.197Z,5.00
2022-08-23T06:40:39.185Z,4.87
2022-08-23T06:41:46.562Z,9.69
2022-08-23T06:42:52.127Z,6.00
2022-08-23T06:43:57.862Z,5.12
2022-08-23T06:45:01.969Z,6.69
2022-08-23T06:46:12.869Z,5.12
2022-08-23T06:47:16.987Z,3.44
2022-08-23T06:48:22.750Z,5.81
2022-08-23T06:49:26.945Z,1.50
2022-08-23T06:50:32.832Z,4.00
2022-08-23T06:51:41.430Z,5.00
2022-08-23T06:52:48.565Z,5.06
2022-08-23T06:53:57.829Z,5.06
2022-08-23T06:55:13.821Z,4.81
2022-08-23T06:56:25.580Z,6.00
2022-08-23T06:57:31.357Z,5.62
2022-08-23T06:58:55.420Z,5.56
2022-08-23T07:00:43.076Z,5.56
2022-08-23T07:01:45.229Z,4.06
2022-08-23T07:02:36.959Z,6.00
2022-08-23T07:03:41.040Z,6.25
2022-08-23T07:04:45.154Z,5.12
2022-08-23T07:05:51.197Z,7.25
2022-08-23T07:06:55.628Z,5.19
2022-08-23T07:08:03.119Z,5.31
2022-08-23T07:09:07.353Z,4.94
2022-08-23T07:10:12.109Z,4.31
2022-08-23T07:11:16.073Z,4.37
2022-08-23T07:12:20.183Z,5.00
2022-08-23T07:13:24.382Z,5.19
2022-08-23T07:14:29.294Z,5.87
2022-08-23T07:15:33.341Z,5.62
2022-08-23T07:16:40.881Z,5.44
2022-08-23T07:17:44.981Z,4.87
2022-08-23T07:18:49.300Z,5.12
2022-08-23T07:19:54.815Z,5.25
2022-08-23T07:21:01.716Z,5.44
2022-08-23T07:22:07.951Z,4.87
2022-08-23T07:23:12.102Z,4.37
2022-08-23T07:24:18.339Z,5.31
2022-08-23T07:25:22.458Z,4.62
2022-08-23T07:26:30.349Z,4.81
2022-08-23T07:27:37.120Z,5.94
2022-08-23T07:28:44.021Z,5.56
2022-08-23T07:29:47.983Z,5.12
2022-08-23T07:30:53.520Z,5.12
2022-08-23T07:31:58.233Z,5.81
2022-08-23T07:33:03.748Z,4.69
2022-08-23T07:34:10.184Z,5.87
2022-08-23T07:35:14.292Z,6.19
2022-08-23T07:36:21.100Z,6.94
2022-08-23T07:37:25.176Z,6.62
2022-08-23T07:38:30.590Z,6.06
2022-08-23T07:39:34.938Z,2.50
2022-08-23T07:40:40.775Z,6.75
2022-08-23T07:41:45.787Z,5.62
2022-08-23T07:42:50.677Z,6.94
2022-08-23T07:43:54.648Z,6.69
2022-08-23T07:45:00.154Z,6.44
2022-08-23T07:46:04.463Z,8.13
2022-08-23T07:47:08.507Z,5.37
2022-08-23T07:48:14.252Z,7.62
2022-08-23T07:49:18.368Z,5.69
2022-08-23T07:50:23.682Z,5.62
2022-08-23T07:51:30.572Z,4.37
2022-08-23T07:52:34.794Z,3.37
2022-08-23T07:53:43.020Z,3.94
2022-08-23T07:54:48.457Z,6.31
2022-08-23T07:55:53.057Z,5.87
2022-08-23T07:57:02.023Z,5.31
2022-08-23T07:58:05.989Z,5.69
2022-08-23T07:59:10.441Z,7.06
2022-08-23T08:00:18.860Z,5.00
2022-08-23T08:01:26.178Z,5.56
2022-08-23T08:02:30.515Z,4.50
2022-08-23T08:03:38.365Z,5.50
2022-08-23T08:04:42.364Z,5.87
2022-08-23T08:05:46.982Z,5.12
2022-08-23T08:07:10.435Z,5.56
2022-08-23T08:07:57.285Z,6.06
2022-08-23T08:09:01.977Z,6.31
2022-08-23T08:10:06.650Z,7.06
2022-08-23T08:11:12.478Z,0.94
2022-08-23T08:12:17.645Z,2.75
2022-08-23T08:13:22.042Z,0.62
2022-08-23T08:14:26.066Z,6.12
2022-08-23T08:15:30.092Z,5.19
2022-08-23T08:16:40.322Z,5.81
2022-08-23T08:17:45.842Z,5.81
2022-08-23T08:18:50.321Z,6.37
2022-08-23T08:19:54.360Z,6.12
2022-08-23T08:20:58.516Z,8.13
2022-08-23T08:22:02.577Z,4.00
2022-08-23T08:23:06.587Z,5.75
2022-08-23T08:24:12.486Z,5.19
2022-08-23T08:25:16.907Z,5.12
2022-08-23T08:26:22.488Z,6.56
2022-08-23T08:27:26.526Z,5.44
2022-08-23T08:28:30.566Z,3.31
2022-08-23T08:29:34.616Z,5.69
2022-08-23T08:30:38.981Z,4.75
2022-08-23T08:31:45.210Z,5.75
2022-08-23T08:32:49.318Z,6.56
2022-08-23T08:33:53.457Z,5.12
2022-08-23T08:34:57.623Z,18.19
2022-08-23T08:36:03.266Z,5.75
2022-08-23T08:37:07.998Z,4.50
2022-08-23T08:38:13.329Z,5.12
2022-08-23T08:39:23.195Z,3.25
2022-08-23T08:40:33.460Z,4.44
2022-08-23T08:42:03.900Z,3.87
2022-08-23T08:43:16.437Z,4.94
2022-08-23T08:44:35.422Z,4.00
2022-08-23T08:46:09.222Z,5.75
2022-08-23T08:47:16.230Z,5.62
2022-08-23T08:48:23.216Z,5.25
2022-08-23T08:49:39.221Z,3.00
2022-08-23T08:50:51.967Z,4.19
2022-08-23T08:52:00.527Z,4.81
2022-08-23T08:53:22.083Z,4.69
2022-08-23T08:54:29.938Z,4.00
2022-08-23T08:55:36.915Z,3.00
2022-08-23T08:56:41.523Z,3.25
2022-08-23T08:57:48.549Z,3.12
2022-08-23T08:59:02.764Z,3.62
2022-08-23T09:00:13.008Z,2.87
2022-08-23T09:01:18.974Z,3.50
2022-08-23T09:02:42.760Z,3.37
2022-08-23T09:03:35.729Z,3.37
2022-08-23T09:04:39.874Z,3.94
2022-08-23T09:05:51.771Z,3.81
2022-08-23T09:06:58.992Z,3.37
2022-08-23T09:08:34.270Z,4.12
2022-08-23T09:10:03.747Z,3.56
2022-08-23T09:11:27.345Z,4.44
2022-08-23T09:12:34.414Z,3.50
2022-08-23T09:14:08.183Z,2.75
2022-08-23T09:15:27.862Z,3.37
2022-08-23T09:16:53.273Z,3.19
2022-08-23T09:18:00.485Z,3.94
2022-08-23T09:19:07.539Z,3.94
2022-08-23T09:20:16.226Z,3.62
2022-08-23T09:21:22.909Z,3.44
2022-08-23T09:22:32.435Z,4.75
2022-08-23T09:23:39.423Z,4.37
2022-08-23T09:24:45.746Z,4.06
2022-08-23T09:25:57.095Z,3.87
2022-08-23T09:27:02.634Z,4.25
2022-08-23T09:28:07.151Z,3.50
2022-08-23T09:29:26.563Z,4.25
2022-08-23T09:30:48.982Z,2.44
2022-08-23T09:31:58.265Z,3.37
2022-08-23T09:33:07.087Z,3.81
2022-08-23T09:34:15.457Z,3.81
2022-08-23T09:35:26.308Z,4.62
2022-08-23T09:36:37.463Z,4.56
2022-08-23T09:37:53.462Z,0.75
2022-08-23T09:39:00.806Z,1.37
2022-08-23T09:40:19.641Z,5.12
2022-08-23T09:41:28.380Z,3.37
2022-08-23T09:42:37.876Z,3.31
2022-08-23T09:43:46.680Z,4.00
2022-08-23T09:44:50.856Z,3.81
2022-08-23T09:45:57.882Z,4.37
2022-08-23T09:47:10.763Z,3.19
2022-08-23T09:48:17.260Z,2.25
2022-08-23T09:49:29.734Z,4.69
2022-08-23T09:50:42.760Z,4.37
2022-08-23T09:51:48.180Z,3.81
2022-08-23T09:53:04.219Z,2.75
2022-08-23T09:54:15.929Z,3.75
2022-08-23T09:55:39.129Z,3.75
2022-08-23T09:56:46.238Z,3.25
2022-08-23T09:57:52.517Z,4.50
2022-08-23T09:58:56.637Z,2.87
2022-08-23T10:00:18.688Z,3.37
2022-08-23T10:01:28.613Z,3.37
2022-08-23T10:02:35.288Z,4.81
2022-08-23T10:03:40.383Z,3.94
2022-08-23T10:04:47.481Z,3.06
2022-08-23T10:05:56.368Z,4.00
2022-08-23T10:07:48.643Z,2.87
2022-08-23T10:08:10.262Z,1.81
2022-08-23T10:09:33.591Z,4.00
2022-08-23T10:10:43.675Z,2.69
2022-08-23T10:11:50.866Z,3.37
2022-08-23T10:12:56.253Z,3.06
2022-08-23T10:14:00.460Z,2.00
2022-08-23T10:15:06.325Z,2.81
2022-08-23T10:16:32.452Z,1.94
2022-08-23T10:17:45.225Z,2.12
2022-08-23T10:19:11.192Z,2.00
2022-08-23T10:20:38.719Z,2.56
2022-08-23T10:22:17.586Z,3.12
2022-08-23T10:23:39.636Z,3.00
2022-08-23T10:24:49.969Z,2.94
2022-08-23T10:25:57.067Z,2.62
2022-08-23T10:27:12.848Z,2.56
2022-08-23T10:28:31.506Z,2.75
2022-08-23T10:29:43.013Z,2.37
2022-08-23T10:31:02.068Z,1.56
2022-08-23T10:32:14.621Z,2.00
2022-08-23T10:33:25.893Z,2.00
2022-08-23T10:34:50.708Z,2.19
2022-08-23T10:36:17.783Z,2.75
2022-08-23T10:37:35.322Z,1.75
2022-08-23T10:38:57.485Z,1.94
2022-08-23T10:40:26.997Z,2.25
2022-08-23T10:41:40.073Z,1.37
2022-08-23T10:42:50.006Z,0.62
2022-08-23T10:44:11.683Z,2.25
2022-08-23T10:45:27.366Z,2.50
2022-08-23T10:46:34.730Z,1.56
2022-08-23T10:47:41.528Z,1.50
2022-08-23T10:48:48.498Z,1.50
2022-08-23T10:49:54.626Z,2.06
2022-08-23T10:51:01.756Z,3.31
2022-08-23T10:52:10.378Z,1.94
2022-08-23T10:53:19.387Z,1.12
2022-08-23T10:54:26.503Z,2.62
2022-08-23T10:55:34.645Z,1.81
2022-08-23T10:56:48.493Z,1.69
2022-08-23T10:57:48.410Z,2.06
2022-08-23T10:59:16.126Z,2.50
2022-08-23T11:00:23.404Z,1.56
2022-08-23T11:01:42.047Z,2.00
2022-08-23T11:02:49.166Z,2.00
2022-08-23T11:04:05.160Z,1.25
2022-08-23T11:05:20.972Z,2.31
2022-08-23T11:06:28.328Z,2.37
2022-08-23T11:07:40.751Z,2.25
2022-08-23T11:08:48.144Z,2.25
2022-08-23T11:09:55.182Z,1.69
2022-08-23T11:10:59.512Z,2.00
2022-08-23T11:12:26.179Z,2.56
2022-08-23T11:13:32.309Z,2.00
2022-08-23T11:14:44.804Z,1.87
2022-08-23T11:16:03.887Z,1.06
2022-08-23T11:17:13.596Z,1.25
2022-08-23T11:18:41.320Z,3.06
2022-08-23T11:19:51.235Z,2.06
2022-08-23T11:20:58.483Z,0.00
2022-08-23T11:22:14.339Z,0.62
2022-08-23T11:23:32.806Z,1.87
2022-08-23T11:24:39.792Z,2.56
2022-08-23T11:25:45.318Z,1.62
2022-08-23T11:26:52.386Z,3.06
2022-08-23T11:28:32.789Z,0.75
2022-08-23T11:29:39.421Z,2.00
2022-08-23T11:30:48.512Z,3.37
2022-08-23T11:32:04.077Z,1.94
2022-08-23T11:33:25.202Z,0.50
2022-08-23T11:34:33.704Z,2.00
2022-08-23T11:35:46.530Z,1.19
2022-08-23T11:37:21.975Z,2.06
2022-08-23T11:38:45.231Z,2.56
2022-08-23T11:40:02.661Z,1.56
2022-08-23T11:41:15.291Z,1.37
2022-08-23T11:42:20.312Z,2.31
2022-08-23T11:43:27.283Z,2.69
2022-08-23T11:44:38.522Z,2.12
2022-08-23T11:45:47.508Z,2.00
2022-08-23T11:46:56.518Z,2.31
2022-08-23T11:48:21.455Z,0.19
2022-08-23T11:49:32.452Z,1.56
2022-08-23T11:50:59.514Z,2.44
2022-08-23T11:52:22.920Z,2.12
2022-08-23T11:53:46.472Z,2.31
2022-08-23T11:55:08.287Z,2.19
2022-08-23T11:56:30.592Z,2.44
2022-08-23T11:57:49.534Z,0.00
2022-08-23T11:59:16.004Z,2.06
2022-08-23T12:00:29.238Z,1.94
2022-08-23T12:01:41.221Z,0.56
2022-08-23T12:02:55.437Z,2.19
2022-08-23T12:04:06.225Z,1.50
2022-08-23T12:05:20.250Z,2.25
2022-08-23T12:06:50.910Z,1.94
2022-08-23T12:08:01.376Z,2.50
2022-08-23T12:09:26.937Z,2.00
2022-08-23T12:10:45.926Z,2.87
2022-08-23T12:11:55.713Z,2.06
2022-08-23T12:13:22.678Z,2.44
2022-08-23T12:14:44.698Z,1.37
2022-08-23T12:16:17.831Z,1.50
2022-08-23T12:17:25.029Z,1.94
2022-08-23T12:18:30.599Z,2.81
2022-08-23T12:19:40.382Z,2.25
2022-08-23T12:20:48.605Z,2.62
2022-08-23T12:21:54.386Z,1.62
2022-08-23T12:23:04.115Z,3.06
2022-08-23T12:24:26.304Z,5.00
2022-08-23T12:25:31.136Z,4.56
2022-08-23T12:26:58.643Z,3.06
2022-08-23T12:28:36.144Z,3.44
2022-08-23T12:30:01.332Z,3.69
2022-08-23T12:31:13.632Z,2.69
2022-08-23T12:32:25.757Z,2.69
2022-08-23T12:33:49.041Z,3.06
2022-08-23T12:35:21.507Z,4.31
2022-08-23T12:36:30.342Z,2.00
2022-08-23T12:38:00.063Z,3.31
2022-08-23T12:39:10.300Z,3.94
2022-08-23T12:40:18.270Z,3.25
2022-08-23T12:41:25.378Z,4.00
2022-08-23T12:42:38.222Z,4.12
2022-08-23T12:43:45.256Z,5.50
2022-08-23T12:44:54.926Z,7.31
2022-08-23T12:46:02.243Z,5.62
2022-08-23T12:47:18.220Z,3.06
2022-08-23T12:48:26.647Z,2.62
2022-08-23T12:49:33.607Z,3.31
2022-08-23T12:50:40.819Z,3.37
2022-08-23T12:51:53.101Z,2.69
2022-08-23T12:53:00.531Z,3.50
2022-08-23T12:54:16.232Z,2.81
2022-08-23T12:55:20.649Z,2.12
2022-08-23T12:56:32.570Z,1.87
2022-08-23T12:57:42.163Z,3.44
2022-08-23T12:58:48.547Z,2.50
2022-08-23T13:00:17.213Z,3.69
2022-08-23T13:01:29.819Z,3.81
2022-08-23T13:02:34.718Z,5.19
2022-08-23T13:03:42.208Z,4.62
2022-08-23T13:04:46.810Z,4.62
2022-08-23T13:06:03.211Z,4.50
2022-08-23T13:07:10.326Z,2.50
2022-08-23T13:08:21.219Z,4.12
2022-08-23T13:09:35.554Z,4.19
2022-08-23T13:10:44.626Z,3.50
2022-08-23T13:11:49.348Z,1.87
2022-08-23T13:12:53.872Z,2.56
2022-08-23T13:13:58.792Z,3.06
2022-08-23T13:15:02.931Z,3.06
2022-08-23T13:16:27.291Z,2.31
2022-08-23T13:17:37.075Z,4.06
2022-08-23T13:18:43.944Z,3.62
2022-08-23T13:19:51.320Z,3.75
2022-08-23T13:21:15.053Z,4.50
2022-08-23T13:22:24.829Z,3.87
2022-08-23T13:23:33.305Z,2.75
2022-08-23T13:24:47.805Z,0.44
2022-08-23T13:26:02.529Z,3.37
2022-08-23T13:27:18.262Z,3.75
2022-08-23T13:28:31.187Z,4.31
2022-08-23T13:29:36.861Z,3.87
2022-08-23T13:30:42.580Z,3.19
2022-08-23T13:32:02.664Z,4.00
2022-08-23T13:33:11.646Z,4.19
2022-08-23T13:34:37.622Z,3.56
2022-08-23T13:35:49.764Z,4.37
2022-08-23T13:36:56.168Z,3.00
2022-08-23T13:38:03.840Z,3.37
2022-08-23T13:39:09.276Z,2.69
2022-08-23T13:40:18.200Z,2.94
2022-08-23T13:41:31.203Z,3.81
2022-08-23T13:42:46.895Z,3.00
2022-08-23T13:43:55.226Z,3.87
2022-08-23T13:45:00.796Z,3.50
2022-08-23T13:46:16.984Z,3.94
2022-08-23T13:47:23.890Z,4.00
2022-08-23T13:48:33.929Z,4.94
2022-08-23T13:49:38.308Z,3.81
2022-08-23T13:50:43.947Z,3.69
2022-08-23T13:52:33.300Z,4.75
2022-08-23T13:53:14.695Z,3.62
2022-08-23T13:54:16.683Z,4.44
2022-08-23T13:55:21.384Z,1.69
2022-08-23T13:56:28.379Z,4.62
2022-08-23T13:57:34.057Z,4.31
2022-08-23T13:58:38.134Z,4.00
2022-08-23T13:59:54.812Z,3.62
2022-08-23T14:01:10.681Z,4.19
2022-08-23T14:02:22.201Z,4.62
2022-08-23T14:03:23.837Z,4.81
2022-08-23T14:04:29.396Z,4.37
2022-08-23T14:05:33.836Z,3.94
2022-08-23T14:06:39.480Z,3.44
2022-08-23T14:07:49.104Z,0.62
2022-08-23T14:08:53.656Z,4.31
2022-08-23T14:10:00.493Z,5.37
2022-08-23T14:11:08.620Z,3.06
2022-08-23T14:12:18.721Z,3.00
2022-08-23T14:13:25.159Z,3.94
2022-08-23T14:14:31.721Z,4.50
2022-08-23T14:16:42.578Z,2.44
2022-08-23T14:17:52.510Z,3.69
2022-08-23T14:21:08.468Z,4.69
2022-08-23T14:22:13.253Z,4.75
2022-08-23T14:23:17.699Z,4.25
2022-08-23T14:24:26.920Z,3.94
2022-08-23T14:25:34.294Z,2.75
2022-08-23T14:26:51.623Z,4.25
2022-08-23T14:29:00.022Z,3.50
2022-08-23T14:30:23.210Z,2.62
2022-08-23T14:31:29.206Z,4.94
2022-08-23T14:32:33.173Z,4.06
2022-08-23T14:33:38.338Z,4.44
2022-08-23T14:34:43.623Z,4.87
2022-08-23T14:35:50.625Z,5.62
2022-08-23T14:38:03.965Z,5.94
2022-08-23T14:39:07.071Z,5.50
2022-08-23T14:40:13.105Z,5.87
2022-08-23T14:42:39.170Z,3.00
2022-08-23T14:43:47.142Z,2.69
2022-08-23T14:44:51.537Z,2.94
2022-08-23T14:45:59.129Z,5.31
2022-08-23T14:47:03.627Z,4.19
2022-08-23T14:48:07.951Z,4.31
2022-08-23T14:49:13.671Z,4.75
2022-08-23T14:50:19.099Z,4.87
2022-08-23T14:51:35.234Z,6.06
2022-08-23T14:52:42.659Z,5.19
2022-08-23T14:53:47.864Z,5.31
2022-08-23T14:54:53.791Z,5.56
2022-08-23T14:56:20.629Z,4.87
2022-08-23T14:57:07.658Z,6.12
2022-08-23T14:58:14.547Z,6.00
2022-08-23T14:59:23.971Z,5.62
2022-08-23T15:00:29.729Z,3.87
2022-08-23T15:01:35.766Z,6.62
2022-08-23T15:02:45.923Z,4.94
2022-08-23T15:05:03.162Z,4.25
2022-08-23T15:06:12.980Z,5.06
2022-08-23T15:07:20.102Z,4.50
2022-08-23T15:08:31.092Z,5.69